Queen Of Cowichan — CZ4990 — position and weather

sailwx.info

Track history (hours):
 
Tides and Currents Weather Stations Pressure Air Temp Water Temp Dewpoint Dewpoint Depression Visibility Wind Speed Wind Dir Waves Ship Positions

Queen Of Cowichan

Last reported at 2018-Nov-11 02:32 UTC. Time now 2018-Nov-17 17:10 UTC.
Position N 49°26' W 123°28'.

Length 139 m.

Type: Passenger vessel. MMSI: 316001251.

Date/timePositionNaut miles runAvg speedWind from/ knotsBaromVisibWave heightAir tempDewpointWater temp
2018-Nov-11 02:32N 49°26' W 123°28'1 3.0
2018-Nov-11 02:02N 49°25' W 123°26'714.2
2018-Nov-11 01:33N 49°23' W 123°16'0 0.1
2018-Nov-11 01:02N 49°23' W 123°16'612.9
2018-Nov-11 00:32N 49°19' W 123°24'1020.0
2018-Nov-11 00:02N 49°16' W 123°39'1019.9
2018-Nov-10 23:33N 49°13' W 123°54'3 5.9
2018-Nov-10 23:03N 49°12' W 123°57'3 5.4
2018-Nov-10 22:33N 49°13' W 123°54'918.3
2018-Nov-10 22:03N 49°16' W 123°41'918.4
2018-Nov-10 21:33N 49°19' W 123°27'816.4
2018-Nov-10 21:02N 49°23' W 123°16'0 0.7
2018-Nov-10 20:32N 49°23' W 123°16'3 6.3
2018-Nov-10 20:03N 49°21' W 123°20'1019.0
2018-Nov-10 19:32N 49°17' W 123°34'1019.6
2018-Nov-10 19:02N 49°14' W 123°48'713.2
2018-Nov-10 18:33N 49°12' W 123°57'1 1.2
2018-Nov-10 18:02N 49°12' W 123°57'918.6
2018-Nov-10 17:32N 49°16' W 123°44'1019.4
2018-Nov-10 17:02N 49°19' W 123°30'918.2
2018-Nov-10 16:33N 49°23' W 123°17'1 1.9
2018-Nov-10 16:02N 49°23' W 123°16'611.7
2018-Nov-10 15:32N 49°19' W 123°23'918.9
2018-Nov-10 15:02N 49°16' W 123°37'918.9
2018-Nov-10 14:32N 49°14' W 123°51'5 8.9
2018-Nov-10 14:02N 49°12' W 123°57'0 0.1
2018-Nov-10 13:27N 49°12' W 123°57'0 0.1
2018-Nov-10 12:57N 49°12' W 123°57'0 0.0
2018-Nov-10 11:12N 49°12' W 123°57'0 0.0
2018-Nov-10 11:00N 49°12' W 123°57'0 0.0
2018-Nov-10 10:30N 49°12' W 123°57'0 0.0
2018-Nov-10 09:57N 49°12' W 123°57'0 0.0
2018-Nov-10 09:27N 49°12' W 123°57'0 0.0
2018-Nov-10 08:57N 49°12' W 123°57'0 0.0
2018-Nov-10 08:21N 49°12' W 123°57'0 0.0
2018-Nov-10 08:02N 49°12' W 123°57'5 9.5
2018-Nov-10 07:33N 49°14' W 123°51'1019.4
2018-Nov-10 07:02N 49°17' W 123°37'1019.8
2018-Nov-10 06:32N 49°20' W 123°22'510.0
2018-Nov-10 06:03N 49°23' W 123°16'0 0.6
2018-Nov-10 05:32N 49°23' W 123°16'714.7
2018-Nov-10 05:03N 49°25' W 123°27'1 2.4
2018-Nov-10 04:33N 49°26' W 123°28'714.6
2018-Nov-10 04:02N 49°24' W 123°17'2 4.0
2018-Nov-10 03:33N 49°23' W 123°16'3 7.0
2018-Nov-10 03:03N 49°26' W 123°18'612.7
2018-Nov-10 02:32N 49°26' W 123°28'3 5.7
2018-Nov-10 02:02N 49°26' W 123°24'611.7
2018-Nov-10 01:32N 49°23' W 123°16'0 0.0
2018-Nov-10 01:02N 49°23' W 123°16'714.7
2018-Nov-10 00:32N 49°18' W 123°25'1019.8
2018-Nov-10 00:02N 49°15' W 123°40'1019.8
2018-Nov-09 23:32N 49°13' W 123°54'2 2.8
2018-Nov-09 22:42N 49°12' W 123°57'1 7.5
2018-Nov-09 22:32N 49°13' W 123°56'1019.5
2018-Nov-09 22:02N 49°16' W 123°42'1019.8
2018-Nov-09 21:32N 49°19' W 123°28'816.6
2018-Nov-09 21:02N 49°23' W 123°16'0 0.2
2018-Nov-09 20:32N 49°23' W 123°16'3 5.8
2018-Nov-09 20:02N 49°21' W 123°20'918.8
2018-Nov-09 19:32N 49°17' W 123°33'1020.5
2018-Nov-09 19:02N 49°14' W 123°48'7 6.7
2018-Nov-09 18:04N 49°12' W 123°57'0 4.1
2018-Nov-09 18:02N 49°12' W 123°57'918.3
2018-Nov-09 17:32N 49°16' W 123°45'1020.0
2018-Nov-09 17:02N 49°18' W 123°30'918.9
2018-Nov-09 16:32N 49°23' W 123°17'1 1.8
2018-Nov-09 16:02N 49°23' W 123°16'510.7
2018-Nov-09 15:32N 49°19' W 123°23'918.9
2018-Nov-09 15:02N 49°16' W 123°37'919.0
2018-Nov-09 14:32N 49°14' W 123°51'5 9.4
2018-Nov-09 14:01N 49°12' W 123°57'0 0.0
2018-Nov-09 13:32N 49°12' W 123°57'0 0.0
2018-Nov-09 13:02N 49°12' W 123°57'0 0.0
2018-Nov-09 12:28N 49°12' W 123°57'0 0.0
2018-Nov-09 12:01N 49°12' W 123°57'0 0.0
2018-Nov-09 11:31N 49°12' W 123°57'0 0.0
2018-Nov-09 10:58N 49°12' W 123°57'0 0.0
2018-Nov-09 10:28N 49°12' W 123°57'0 0.0
2018-Nov-09 09:55N 49°12' W 123°57'0 0.0
2018-Nov-09 09:31N 49°12' W 123°57'0 0.0
2018-Nov-09 09:01N 49°12' W 123°57'0 0.0
2018-Nov-09 08:28N 49°12' W 123°57'0 0.0
2018-Nov-09 08:01N 49°12' W 123°57'511.2
2018-Nov-09 07:32N 49°14' W 123°50'1019.6
2018-Nov-09 07:02N 49°18' W 123°36'1019.8
2018-Nov-09 06:32N 49°20' W 123°21'4 8.7
2018-Nov-09 06:02N 49°23' W 123°16'0 0.1
2018-Nov-09 05:32N 49°23' W 123°16'713.5
2018-Nov-09 05:02N 49°25' W 123°26'2 3.7
2018-Nov-09 04:32N 49°26' W 123°28'713.9
2018-Nov-09 04:02N 49°26' W 123°18'3 6.2
2018-Nov-09 03:33N 49°23' W 123°16'3 6.7
2018-Nov-09 03:02N 49°26' W 123°18'713.3
2018-Nov-09 02:32N 49°26' W 123°28'1 1.7
2018-Nov-09 02:02N 49°26' W 123°27'815.4
2018-Nov-09 01:32N 49°23' W 123°16'0 0.6
2018-Nov-09 01:02N 49°23' W 123°16'713.6
2018-Nov-09 00:32N 49°18' W 123°24'1019.3
2018-Nov-09 00:02N 49°16' W 123°38'1020.4
2018-Nov-08 23:32N 49°13' W 123°53'3 6.2
2018-Nov-08 23:02N 49°12' W 123°57'2 4.3
2018-Nov-08 22:32N 49°13' W 123°55'918.8
2018-Nov-08 22:02N 49°16' W 123°41'919.0
2018-Nov-08 21:32N 49°19' W 123°27'816.3
2018-Nov-08 21:02N 49°23' W 123°16'0 0.3
2018-Nov-08 20:32N 49°23' W 123°16'4 8.4
2018-Nov-08 20:02N 49°20' W 123°21'918.6
2018-Nov-08 19:33N 49°17' W 123°34'918.5
2018-Nov-08 19:02N 49°14' W 123°48'713.0
2018-Nov-08 18:32N 49°12' W 123°57'1 2.1
2018-Nov-08 18:03N 49°12' W 123°56'918.6
2018-Nov-08 17:33N 49°16' W 123°43'918.8
2018-Nov-08 17:02N 49°18' W 123°29'917.8
2018-Nov-08 16:33N 49°23' W 123°17'1 1.8
2018-Nov-08 16:02N 49°23' W 123°16'612.4
2018-Nov-08 15:32N 49°19' W 123°24'919.0
2018-Nov-08 15:02N 49°16' W 123°38'1019.2
2018-Nov-08 14:32N 49°14' W 123°52'4 8.1
2018-Nov-08 14:02N 49°12' W 123°57'0 0.1
2018-Nov-08 13:32N 49°12' W 123°57'0 0.1
2018-Nov-08 13:02N 49°12' W 123°57'0 0.0
2018-Nov-08 12:32N 49°12' W 123°57'0 0.0
2018-Nov-08 12:02N 49°12' W 123°57'0 0.0
2018-Nov-08 11:26N 49°12' W 123°57'0 0.0
2018-Nov-08 11:02N 49°12' W 123°57'0 0.0
2018-Nov-08 10:29N 49°12' W 123°57'0 0.0
2018-Nov-08 10:02N 49°12' W 123°57'0 0.0
2018-Nov-08 09:32N 49°12' W 123°57'0 0.0
2018-Nov-08 09:02N 49°12' W 123°57'0 0.0
2018-Nov-08 08:32N 49°12' W 123°57'0 0.0
2018-Nov-08 08:02N 49°12' W 123°57'5 9.7
2018-Nov-08 07:32N 49°14' W 123°51'1019.4
2018-Nov-08 07:02N 49°17' W 123°37'1019.7
2018-Nov-08 06:32N 49°20' W 123°22'5 9.9
2018-Nov-08 06:02N 49°23' W 123°16'0 0.0
2018-Nov-08 05:32N 49°23' W 123°16'713.5
2018-Nov-08 05:02N 49°25' W 123°26'2 3.7
2018-Nov-08 04:32N 49°26' W 123°28'714.0
2018-Nov-08 04:02N 49°25' W 123°18'3 5.8
2018-Nov-08 03:32N 49°23' W 123°16'4 7.3
2018-Nov-08 03:02N 49°26' W 123°19'612.1
2018-Nov-08 02:33N 49°26' W 123°28'2 3.8
2018-Nov-08 02:02N 49°25' W 123°26'713.4
2018-Nov-08 01:33N 49°23' W 123°16'0 0.2
2018-Nov-08 01:02N 49°23' W 123°16'2 7.8
2018-Nov-08 00:43N 49°21' W 123°19'319.0
2018-Nov-08 00:32N 49°19' W 123°23'120.5
2018-Nov-08 00:29N 49°19' W 123°25'920.5
2018-Nov-08 00:02N 49°16' W 123°38'1020.4
2018-Nov-07 23:32N 49°13' W 123°54'3 6.0
2018-Nov-07 23:02N 49°12' W 123°57'2 3.9
2018-Nov-07 22:32N 49°13' W 123°55'918.8
2018-Nov-07 22:02N 49°16' W 123°42'1019.1
2018-Nov-07 21:32N 49°19' W 123°27'816.7
2018-Nov-07 21:02N 49°23' W 123°16'0 0.3
2018-Nov-07 20:32N 49°23' W 123°16'4 7.9
2018-Nov-07 20:03N 49°20' W 123°21'1018.9
2018-Nov-07 19:32N 49°17' W 123°35'918.8
2018-Nov-07 19:03N 49°14' W 123°48'612.4
2018-Nov-07 18:32N 49°12' W 123°57'1 2.8
2018-Nov-07 18:02N 49°13' W 123°56'918.2
2018-Nov-07 17:32N 49°16' W 123°43'918.3
2018-Nov-07 17:02N 49°18' W 123°29'917.5
2018-Nov-07 16:32N 49°23' W 123°18'1 2.0
2018-Nov-07 16:02N 49°23' W 123°16'612.2
2018-Nov-07 15:32N 49°19' W 123°24'1019.3
2018-Nov-07 15:03N 49°16' W 123°38'1019.2
2018-Nov-07 14:32N 49°14' W 123°52'4 8.0
2018-Nov-07 14:02N 49°12' W 123°57'0 0.0
2018-Nov-07 13:33N 49°12' W 123°57'0 0.0
2018-Nov-07 13:01N 49°12' W 123°57'0 0.0
2018-Nov-07 12:31N 49°12' W 123°57'0 0.0
2018-Nov-07 12:01N 49°12' W 123°57'0 0.0
2018-Nov-07 11:31N 49°12' W 123°57'0 0.0
2018-Nov-07 11:01N 49°12' W 123°57'0 0.0
2018-Nov-07 10:31N 49°12' W 123°57'0 0.0
2018-Nov-07 10:01N 49°12' W 123°57'0 0.0
2018-Nov-07 09:22N 49°12' W 123°57'0 0.0
2018-Nov-07 08:58N 49°12' W 123°57'0 0.0
2018-Nov-07 08:28N 49°12' W 123°57'0 0.0
2018-Nov-07 08:01N 49°12' W 123°57'4 9.1
2018-Nov-07 07:32N 49°14' W 123°52'1019.4
2018-Nov-07 07:02N 49°17' W 123°37'1019.5
2018-Nov-07 06:32N 49°19' W 123°23'611.1
2018-Nov-07 06:02N 49°23' W 123°16'1 2.2
2018-Nov-07 05:32N 49°24' W 123°16'713.7
2018-Nov-07 05:02N 49°25' W 123°27'1 2.9
2018-Nov-07 04:32N 49°26' W 123°28'22 4.4
2018-Nov-06 23:30N 49°13' W 123°55'2 3.8
2018-Nov-06 23:01N 49°12' W 123°57'0 0.0
2018-Nov-06 23:00N 49°12' W 123°57'1313.1
2018-Nov-06 22:00N 49°17' W 123°39'918.1
2018-Nov-06 21:30N 49°19' W 123°25'716.2
2018-Nov-06 21:03N 49°23' W 123°16'0 7.6
2018-Nov-06 21:00N 49°23' W 123°16'0 0.1
2018-Nov-06 20:31N 49°23' W 123°16'4 8.3
2018-Nov-06 20:04N 49°20' W 123°21'118.0
2018-Nov-06 20:00N 49°20' W 123°22'918.8
2018-Nov-06 19:30N 49°17' W 123°35'818.8
2018-Nov-06 19:03N 49°14' W 123°48'118.5
2018-Nov-06 19:01N 49°14' W 123°49'611.6
2018-Nov-06 18:30N 49°12' W 123°57'1 1.7
2018-Nov-06 18:03N 49°12' W 123°57'119.6
2018-Nov-06 18:01N 49°13' W 123°55'918.3
2018-Nov-06 17:30N 49°16' W 123°42'818.6
2018-Nov-06 17:03N 49°18' W 123°30'118.4
2018-Nov-06 17:00N 49°19' W 123°29'917.7
2018-Nov-06 16:30N 49°23' W 123°17'1 1.9
2018-Nov-06 16:03N 49°23' W 123°16'0 0.0
2018-Nov-06 16:00N 49°23' W 123°16'510.7
2018-Nov-06 15:30N 49°19' W 123°23'919.9
2018-Nov-06 15:03N 49°16' W 123°35'119.5
2018-Nov-06 15:00N 49°16' W 123°37'1019.9
2018-Nov-06 14:30N 49°14' W 123°52'4 9.2
2018-Nov-06 14:03N 49°12' W 123°57'0 0.0
2018-Nov-06 13:59N 49°12' W 123°57'0 0.0
2018-Nov-06 11:22N 49°12' W 123°57'0 0.0
2018-Nov-06 10:58N 49°12' W 123°57'0 0.0
2018-Nov-06 10:22N 49°12' W 123°57'0 0.0
2018-Nov-06 09:58N 49°12' W 123°57'0 0.0
2018-Nov-06 09:07N 49°12' W 123°57'0 0.0
2018-Nov-06 09:01N 49°12' W 123°57'0 0.0
2018-Nov-06 08:58N 49°12' W 123°57'0 0.0
2018-Nov-06 08:16N 49°12' W 123°57'0 0.0
2018-Nov-06 08:01N 49°12' W 123°57'0 0.0
2018-Nov-06 07:58N 49°12' W 123°57'613.3
2018-Nov-06 07:31N 49°15' W 123°49'818.5
2018-Nov-06 07:03N 49°17' W 123°37'118.4
2018-Nov-06 07:01N 49°17' W 123°36'918.4
2018-Nov-06 06:30N 49°20' W 123°22'510.3
2018-Nov-06 06:03N 49°23' W 123°16'0 0.0
2018-Nov-06 06:00N 49°23' W 123°16'1 2.4
2018-Nov-06 05:30N 49°24' W 123°16'613.7
2018-Nov-06 05:04N 49°25' W 123°25'116.0
2018-Nov-06 05:00N 49°25' W 123°27'1 2.5
2018-Nov-06 04:30N 49°26' W 123°28'715.4
2018-Nov-06 04:03N 49°25' W 123°18'117.6
2018-Nov-06 04:01N 49°25' W 123°17'2 4.1
2018-Nov-06 03:30N 49°23' W 123°16'4 8.1
2018-Nov-06 03:03N 49°26' W 123°19'115.5
2018-Nov-06 03:01N 49°25' W 123°21'510.1
2018-Nov-06 02:30N 49°26' W 123°28'2 3.5
2018-Nov-06 02:03N 49°25' W 123°26'116.6
2018-Nov-06 02:00N 49°25' W 123°25'612.5
2018-Nov-06 01:30N 49°23' W 123°16'1 1.3
2018-Nov-06 01:00N 49°23' W 123°17'2617.5
2018-Nov-05 23:30N 49°13' W 123°54'3 3.5
2018-Nov-05 22:42N 49°12' W 123°57'2 9.2
2018-Nov-05 22:31N 49°13' W 123°55'919.6
2018-Nov-05 22:03N 49°16' W 123°43'119.9
2018-Nov-05 22:00N 49°17' W 123°42'1019.8
2018-Nov-05 21:30N 49°19' W 123°27'817.9
2018-Nov-05 21:03N 49°23' W 123°16'0 6.0
2018-Nov-05 21:00N 49°23' W 123°16'0 0.1
2018-Nov-05 20:30N 49°23' W 123°16'3 6.9
2018-Nov-05 20:03N 49°21' W 123°20'119.5
2018-Nov-05 20:01N 49°20' W 123°21'1019.1
2018-Nov-05 19:30N 49°17' W 123°35'919.3
2018-Nov-05 19:03N 49°15' W 123°48'118.8
2018-Nov-05 19:00N 49°14' W 123°49'612.1
2018-Nov-05 18:30N 49°12' W 123°57'0 0.5
2018-Nov-05 18:03N 49°12' W 123°57'110.4
2018-Nov-05 18:00N 49°12' W 123°57'918.9
2018-Nov-05 17:30N 49°16' W 123°44'919.5
2018-Nov-05 17:03N 49°18' W 123°31'119.1
2018-Nov-05 17:00N 49°18' W 123°29'918.4
2018-Nov-05 16:30N 49°23' W 123°17'1 1.5
2018-Nov-05 16:03N 49°23' W 123°16'0 0.0
2018-Nov-05 16:00N 49°23' W 123°16'511.0
2018-Nov-05 15:30N 49°19' W 123°23'919.4
2018-Nov-05 15:03N 49°16' W 123°36'119.2
2018-Nov-05 15:01N 49°16' W 123°37'1019.4
2018-Nov-05 14:30N 49°14' W 123°52'4 9.6
2018-Nov-05 14:04N 49°12' W 123°57'0 0.0
2018-Nov-05 14:01N 49°12' W 123°57'0 0.0
2018-Nov-05 13:02N 49°12' W 123°57'0 0.0
2018-Nov-05 12:59N 49°12' W 123°57'0 0.0
2018-Nov-05 12:26N 49°12' W 123°57'0 0.0
2018-Nov-05 12:02N 49°12' W 123°57'0 0.0
2018-Nov-05 11:59N 49°12' W 123°57'0 0.0
2018-Nov-05 11:20N 49°12' W 123°57'0 0.0
2018-Nov-05 10:38N 49°12' W 123°57'0 0.0
2018-Nov-05 10:17N 49°12' W 123°57'0 0.0
2018-Nov-05 09:29N 49°12' W 123°57'0 0.0
2018-Nov-05 08:26N 49°12' W 123°57'0 0.0
2018-Nov-05 08:02N 49°12' W 123°57'0 0.0
2018-Nov-05 08:00N 49°12' W 123°57'612.8
2018-Nov-05 07:30N 49°15' W 123°49'818.3
2018-Nov-05 07:03N 49°17' W 123°37'118.7
2018-Nov-05 07:00N 49°18' W 123°35'918.5
2018-Nov-05 06:31N 49°20' W 123°22'510.2
2018-Nov-05 06:03N 49°23' W 123°16'0 0.0
2018-Nov-05 06:00N 49°23' W 123°16'2 4.0
2018-Nov-05 05:31N 49°25' W 123°17'614.3
2018-Nov-05 05:03N 49°25' W 123°27'115.7
2018-Nov-05 05:01N 49°26' W 123°27'1 1.1
2018-Nov-05 04:31N 49°26' W 123°28'715.6
2018-Nov-05 04:03N 49°25' W 123°18'118.8
2018-Nov-05 04:00N 49°24' W 123°17'2 3.4
2018-Nov-05 03:30N 49°23' W 123°16'4 8.2
2018-Nov-05 03:03N 49°26' W 123°20'115.4
2018-Nov-05 03:00N 49°26' W 123°21'510.0
2018-Nov-05 02:30N 49°26' W 123°28'1 2.7
2018-Nov-05 02:03N 49°25' W 123°27'117.7
2018-Nov-05 02:00N 49°25' W 123°25'713.1
2018-Nov-05 01:30N 49°23' W 123°16'0 0.1
2018-Nov-05 01:04N 49°23' W 123°16'0 5.1
2018-Nov-05 01:01N 49°23' W 123°16'816.3
2018-Nov-05 00:30N 49°18' W 123°27'818.7
2018-Nov-05 00:03N 49°16' W 123°39'118.7
2018-Nov-05 00:00N 49°16' W 123°40'918.6
2018-Nov-04 23:30N 49°13' W 123°54'3 3.2
2018-Nov-04 22:41N 49°12' W 123°57'2 9.7
2018-Nov-04 22:30N 49°13' W 123°55'919.5
2018-Nov-04 22:03N 49°16' W 123°43'119.9
2018-Nov-04 22:01N 49°17' W 123°42'1019.9
2018-Nov-04 21:30N 49°19' W 123°27'817.6
2018-Nov-04 21:03N 49°23' W 123°16'0 4.5
2018-Nov-04 21:00N 49°23' W 123°16'0 0.1
2018-Nov-04 20:30N 49°23' W 123°16'3 5.8
2018-Nov-04 20:03N 49°21' W 123°20'119.9
2018-Nov-04 20:01N 49°20' W 123°20'1019.6
2018-Nov-04 19:31N 49°17' W 123°34'919.9
2018-Nov-04 19:03N 49°14' W 123°48'120.3
2018-Nov-04 19:00N 49°14' W 123°49'611.9
2018-Nov-04 18:31N 49°12' W 123°57'0 0.5
2018-Nov-04 18:03N 49°12' W 123°57'0 8.8
2018-Nov-04 18:00N 49°12' W 123°57'1019.2
2018-Nov-04 17:30N 49°16' W 123°43'1020.1
2018-Nov-04 17:00N 49°19' W 123°29'918.3
2018-Nov-04 16:30N 49°23' W 123°16'0 1.1
2018-Nov-04 16:03N 49°23' W 123°16'0 0.0
2018-Nov-04 16:00N 49°23' W 123°16'510.5
2018-Nov-04 15:30N 49°19' W 123°22'919.7
2018-Nov-04 15:03N 49°16' W 123°35'120.3
2018-Nov-04 15:00N 49°16' W 123°37'1020.0
2018-Nov-04 14:30N 49°14' W 123°52'4 9.3
2018-Nov-04 14:03N 49°12' W 123°57'0 0.0
2018-Nov-04 14:00N 49°12' W 123°57'0 0.1
2018-Nov-04 13:30N 49°12' W 123°57'0 0.1
2018-Nov-04 13:03N 49°12' W 123°57'0 0.0
2018-Nov-04 13:00N 49°12' W 123°57'0 0.0
2018-Nov-04 12:30N 49°12' W 123°57'0 0.0
2018-Nov-04 12:03N 49°12' W 123°57'0 0.0
2018-Nov-04 12:00N 49°12' W 123°57'0 0.0
2018-Nov-04 11:30N 49°12' W 123°57'0 0.0
2018-Nov-04 11:03N 49°12' W 123°57'0 0.0
2018-Nov-04 11:00N 49°12' W 123°57'0 0.0
2018-Nov-04 10:30N 49°12' W 123°57'0 0.0
2018-Nov-04 10:03N 49°12' W 123°57'0 0.0
2018-Nov-04 10:00N 49°12' W 123°57'0 0.0
2018-Nov-04 09:30N 49°12' W 123°57'0 0.0
2018-Nov-04 09:01N 49°12' W 123°57'0 0.0
2018-Nov-04 09:00N 49°12' W 123°57'0 0.0
2018-Nov-04 08:30N 49°12' W 123°57'0 0.0
2018-Nov-04 08:03N 49°12' W 123°57'0 0.0
2018-Nov-04 08:00N 49°12' W 123°57'0 0.0
2018-Nov-04 07:30N 49°12' W 123°57'0 0.0
2018-Nov-04 07:03N 49°12' W 123°57'0 0.0
2018-Nov-04 07:00N 49°12' W 123°57'0 0.0
2018-Nov-04 06:30N 49°12' W 123°57'0 0.0
2018-Nov-04 06:03N 49°12' W 123°57'0 0.0
2018-Nov-04 06:00N 49°12' W 123°57'0 0.0
2018-Nov-04 05:30N 49°12' W 123°57'0 0.0
2018-Nov-04 05:03N 49°12' W 123°57'0 0.0
2018-Nov-04 05:00N 49°12' W 123°57'0 0.0
2018-Nov-04 04:30N 49°12' W 123°57'0 0.0
2018-Nov-04 04:03N 49°12' W 123°57'0 0.0
2018-Nov-04 04:00N 49°12' W 123°57'0 0.0
2018-Nov-04 03:30N 49°12' W 123°57'4 9.8
2018-Nov-04 03:03N 49°14' W 123°52'118.6
2018-Nov-04 03:01N 49°15' W 123°51'918.2
2018-Nov-04 02:31N 49°18' W 123°38'919.6
2018-Nov-04 02:03N 49°19' W 123°24'119.8
2018-Nov-04 02:00N 49°19' W 123°23'5 3.6
2018-Nov-04 00:32N 49°23' W 123°16'0 0.0
2018-Nov-04 00:30N 49°23' W 123°16'0 0.1
2018-Nov-04 00:03N 49°23' W 123°16'0 7.8
2018-Nov-04 00:01N 49°23' W 123°16'917.6
2018-Nov-03 23:30N 49°18' W 123°27'919.5
2018-Nov-03 23:03N 49°15' W 123°40'119.2
2018-Nov-03 23:00N 49°15' W 123°42'1019.5
2018-Nov-03 22:30N 49°13' W 123°56'2010.1
2018-Nov-03 20:30N 49°19' W 123°27'817.2
2018-Nov-03 20:03N 49°23' W 123°16'0 2.5
2018-Nov-03 20:00N 49°23' W 123°16'0 0.1
2018-Nov-03 19:30N 49°23' W 123°16'4 9.1
2018-Nov-03 19:03N 49°20' W 123°21'118.9
2018-Nov-03 19:00N 49°19' W 123°22'1019.8
2018-Nov-03 18:30N 49°16' W 123°37'919.8
2018-Nov-03 18:03N 49°15' W 123°50'119.6
2018-Nov-03 18:00N 49°14' W 123°52'5 9.3
2018-Nov-03 17:30N 49°12' W 123°57'0 0.5
2018-Nov-03 17:03N 49°12' W 123°57'0 7.2
2018-Nov-03 17:00N 49°12' W 123°57'919.0
2018-Nov-03 16:30N 49°16' W 123°44'919.8
2018-Nov-03 16:03N 49°18' W 123°31'119.8
2018-Nov-03 16:00N 49°19' W 123°29'918.7
2018-Nov-03 15:30N 49°23' W 123°17'1 1.3
2018-Nov-03 15:03N 49°23' W 123°16'0 0.0
2018-Nov-03 15:00N 49°23' W 123°16'611.0
2018-Nov-03 14:30N 49°19' W 123°23'919.4
2018-Nov-03 14:03N 49°16' W 123°36'119.5
2018-Nov-03 14:01N 49°16' W 123°37'1019.4
2018-Nov-03 13:30N 49°14' W 123°51'4 5.8
2018-Nov-03 12:45N 49°12' W 123°57'0 0.0
2018-Nov-03 12:07N 49°12' W 123°57'0 0.0
2018-Nov-03 11:55N 49°12' W 123°57'0 0.0
2018-Nov-03 11:19N 49°12' W 123°57'0 0.0
2018-Nov-03 10:59N 49°12' W 123°57'0 0.0
2018-Nov-03 10:04N 49°12' W 123°57'0 0.0
2018-Nov-03 10:01N 49°12' W 123°57'0 0.0
2018-Nov-03 09:56N 49°12' W 123°57'0 0.0
2018-Nov-03 09:10N 49°12' W 123°57'0 0.0
2018-Nov-03 08:53N 49°12' W 123°57'0 0.0
2018-Nov-03 08:29N 49°12' W 123°57'0 0.0
2018-Nov-03 07:38N 49°12' W 123°57'0 0.0
2018-Nov-03 06:57N 49°12' W 123°57'715.8
2018-Nov-03 06:30N 49°16' W 123°48'818.4
2018-Nov-03 06:03N 49°18' W 123°36'118.7
2018-Nov-03 06:00N 49°18' W 123°35'918.5
2018-Nov-03 05:30N 49°20' W 123°21'4 8.6
2018-Nov-03 05:03N 49°23' W 123°16'0 0.0
2018-Nov-03 05:00N 49°23' W 123°16'1 1.7
2018-Nov-03 04:30N 49°23' W 123°16'613.7
2018-Nov-03 04:04N 49°25' W 123°25'115.5
2018-Nov-03 04:00N 49°25' W 123°26'1 2.7
2018-Nov-03 03:31N 49°26' W 123°28'614.1
2018-Nov-03 03:03N 49°26' W 123°19'113.9
2018-Nov-03 03:00N 49°25' W 123°18'3 5.8
2018-Nov-03 02:30N 49°23' W 123°16'4 8.4
2018-Nov-03 02:03N 49°26' W 123°20'116.0
2018-Nov-03 02:00N 49°26' W 123°21'5 9.9
2018-Nov-03 01:30N 49°26' W 123°28'2 4.7
2018-Nov-03 01:03N 49°25' W 123°25'117.7
2018-Nov-03 01:00N 49°26' W 123°24'611.6
2018-Nov-03 00:31N 49°23' W 123°16'0 0.0
2018-Nov-03 00:04N 49°23' W 123°16'0 4.1
2018-Nov-03 00:00N 49°23' W 123°16'816.4
2018-Nov-02 23:30N 49°18' W 123°26'818.5
2018-Nov-02 23:03N 49°16' W 123°39'118.1
2018-Nov-02 23:01N 49°16' W 123°40'918.4
2018-Nov-02 22:30N 49°13' W 123°54'3 6.4
2018-Nov-02 22:03N 49°12' W 123°57'0 0.0
2018-Nov-02 22:00N 49°12' W 123°57'3 5.5
2018-Nov-02 21:30N 49°13' W 123°54'919.8
2018-Nov-02 21:03N 49°16' W 123°41'120.2
2018-Nov-02 21:00N 49°17' W 123°40'1020.0
2018-Nov-02 20:30N 49°19' W 123°25'714.8
2018-Nov-02 20:03N 49°23' W 123°16'0 1.0
2018-Nov-02 20:00N 49°23' W 123°16'0 0.0
2018-Nov-02 19:30N 49°23' W 123°16'3 7.5
2018-Nov-02 19:04N 49°20' W 123°20'120.0
2018-Nov-02 19:01N 49°20' W 123°21'1019.0
2018-Nov-02 18:31N 49°16' W 123°35'919.8
2018-Nov-02 18:03N 49°14' W 123°48'119.7
2018-Nov-02 18:00N 49°14' W 123°50'610.2
2018-Nov-02 17:27N 49°12' W 123°57'0 0.4
2018-Nov-02 17:03N 49°12' W 123°57'010.3
2018-Nov-02 17:00N 49°12' W 123°57'1019.1
2018-Nov-02 16:30N 49°16' W 123°43'920.0
2018-Nov-02 16:03N 49°18' W 123°30'120.1
2018-Nov-02 16:00N 49°18' W 123°29'918.3
2018-Nov-02 15:30N 49°23' W 123°17'1 1.2
2018-Nov-02 15:04N 49°23' W 123°16'0 0.0
2018-Nov-02 15:01N 49°23' W 123°16'611.1
2018-Nov-02 14:30N 49°19' W 123°23'1019.3
2018-Nov-02 14:00N 49°16' W 123°37'1019.4
2018-Nov-02 13:30N 49°14' W 123°51'4 9.6
2018-Nov-02 13:03N 49°12' W 123°57'0 0.0
2018-Nov-02 13:00N 49°12' W 123°57'0 0.1
2018-Nov-02 12:30N 49°12' W 123°57'0 0.1
2018-Nov-02 11:58N 49°12' W 123°57'0 0.0
2018-Nov-02 11:25N 49°12' W 123°57'0 0.0
2018-Nov-02 10:55N 49°12' W 123°57'0 0.0
2018-Nov-02 10:25N 49°12' W 123°57'0 0.0
2018-Nov-02 09:46N 49°12' W 123°57'0 0.0
2018-Nov-02 09:28N 49°12' W 123°57'0 0.0
2018-Nov-02 09:01N 49°12' W 123°57'0 0.0
2018-Nov-02 08:58N 49°12' W 123°57'0 0.0
2018-Nov-02 08:28N 49°12' W 123°57'0 0.0
2018-Nov-02 07:55N 49°12' W 123°57'0 0.0
2018-Nov-02 07:10N 49°12' W 123°57'0 0.0
2018-Nov-02 06:59N 49°12' W 123°57'612.8
2018-Nov-02 06:30N 49°15' W 123°49'818.5
2018-Nov-02 06:03N 49°18' W 123°37'118.8
2018-Nov-02 06:00N 49°18' W 123°36'918.5
2018-Nov-02 05:30N 49°20' W 123°22'510.7
2018-Nov-02 05:03N 49°23' W 123°16'0 0.0
2018-Nov-02 05:00N 49°23' W 123°16'1 2.5
2018-Nov-02 04:30N 49°24' W 123°16'614.2
2018-Nov-02 04:03N 49°25' W 123°26'118.9
2018-Nov-02 04:00N 49°26' W 123°27'1 1.4
2018-Nov-02 03:30N 49°26' W 123°28'614.2
2018-Nov-02 03:04N 49°26' W 123°18'115.5
2018-Nov-02 03:00N 49°25' W 123°17'3 5.3
2018-Nov-02 02:30N 49°23' W 123°16'4 8.2
2018-Nov-02 02:04N 49°26' W 123°19'116.0
2018-Nov-02 02:01N 49°26' W 123°20'510.4
2018-Nov-02 01:30N 49°26' W 123°28'2 3.9
2018-Nov-02 01:03N 49°25' W 123°26'116.3
2018-Nov-02 01:00N 49°25' W 123°25'116.8
2018-Nov-02 00:56N 49°25' W 123°23'413.3
2018-Nov-02 00:36N 49°23' W 123°17'1 9.3
2018-Nov-02 00:30N 49°23' W 123°16'0 0.3
2018-Nov-02 00:03N 49°23' W 123°16'110.8
2018-Nov-02 00:00N 49°23' W 123°17'917.1
2018-Nov-01 23:30N 49°18' W 123°27'818.3
2018-Nov-01 23:03N 49°16' W 123°39'118.4
2018-Nov-01 23:00N 49°16' W 123°41'918.2
2018-Nov-01 22:30N 49°13' W 123°54'3 4.9
2018-Nov-01 21:58N 49°12' W 123°57'4 7.9
2018-Nov-01 21:30N 49°14' W 123°53'920.0
2018-Nov-01 21:03N 49°17' W 123°40'119.9
2018-Nov-01 21:00N 49°17' W 123°38'1019.7
2018-Nov-01 20:30N 49°19' W 123°24'613.1
2018-Nov-01 20:03N 49°23' W 123°16'0 0.0
2018-Nov-01 20:00N 49°23' W 123°16'0 0.0
2018-Nov-01 19:30N 49°23' W 123°16'4 8.3
2018-Nov-01 19:03N 49°20' W 123°21'119.4
2018-Nov-01 19:00N 49°19' W 123°22'1019.4
2018-Nov-01 18:30N 49°17' W 123°36'919.7
2018-Nov-01 18:03N 49°15' W 123°49'119.0
2018-Nov-01 18:00N 49°15' W 123°51'511.0
2018-Nov-01 17:30N 49°12' W 123°57'0 0.9
2018-Nov-01 17:03N 49°12' W 123°57'113.8
2018-Nov-01 17:00N 49°12' W 123°56'1019.5
2018-Nov-01 16:30N 49°17' W 123°43'919.8
2018-Nov-01 16:03N 49°19' W 123°30'119.8
2018-Nov-01 16:00N 49°19' W 123°28'917.4
2018-Nov-01 15:30N 49°23' W 123°16'0 0.7
2018-Nov-01 15:03N 49°23' W 123°16'0 0.0
2018-Nov-01 15:00N 49°23' W 123°16'611.8
2018-Nov-01 14:30N 49°19' W 123°24'1019.4
2018-Nov-01 14:01N 49°16' W 123°38'1019.4
2018-Nov-01 13:30N 49°14' W 123°52'4 8.7
2018-Nov-01 13:03N 49°12' W 123°57'0 0.0
2018-Nov-01 13:00N 49°12' W 123°57'0 0.0
2018-Nov-01 12:20N 49°12' W 123°57'0 0.0
2018-Nov-01 12:02N 49°12' W 123°57'0 0.0
2018-Nov-01 11:56N 49°12' W 123°57'0 0.0
2018-Nov-01 11:29N 49°12' W 123°57'0 0.0
2018-Nov-01 10:56N 49°12' W 123°57'0 0.0
2018-Nov-01 10:26N 49°12' W 123°57'0 0.0
2018-Nov-01 09:56N 49°12' W 123°57'0 0.0
2018-Nov-01 09:29N 49°12' W 123°57'0 0.0
2018-Nov-01 09:02N 49°12' W 123°57'0 0.0
2018-Nov-01 08:50N 49°12' W 123°57'0 0.0
2018-Nov-01 08:26N 49°12' W 123°57'0 0.0
2018-Nov-01 08:02N 49°12' W 123°57'0 0.0
2018-Nov-01 07:56N 49°12' W 123°57'0 0.0
2018-Nov-01 07:29N 49°12' W 123°57'0 0.0
2018-Nov-01 06:58N 49°12' W 123°57'614.3
2018-Nov-01 06:30N 49°15' W 123°49'918.9
2018-Nov-01 06:03N 49°17' W 123°36'118.7
2018-Nov-01 06:00N 49°18' W 123°35'918.8
2018-Nov-01 05:30N 49°20' W 123°21'4 8.6
2018-Nov-01 05:04N 49°23' W 123°16'0 0.0
2018-Nov-01 05:01N 49°23' W 123°16'2 4.9
2018-Nov-01 04:30N 49°25' W 123°17'613.8
2018-Nov-01 04:03N 49°25' W 123°27'114.8
2018-Nov-01 04:00N 49°26' W 123°27'0 0.8
2018-Nov-01 03:30N 49°26' W 123°28'715.5
2018-Nov-01 03:03N 49°25' W 123°17'118.4
2018-Nov-01 03:01N 49°24' W 123°17'  
Track history (hours):
 
Tides and Currents Weather Stations Pressure Air Temp Water Temp Dewpoint Dewpoint Depression Visibility Wind Speed Wind Dir Waves Ship Positions

Queen Of Cowichan

Last reported at 2018-Nov-11 02:32 UTC. Time now 2018-Nov-17 17:10 UTC.
Position N 49°26' W 123°28'.

Length 139 m.

Type: Passenger vessel. MMSI: 316001251.

Date/timePositionNaut miles runAvg speedWind from/ knotsBaromVisibWave heightAir tempDewpointWater temp
2018-Nov-11 02:32N 49°26' W 123°28'1 3.0
2018-Nov-11 02:02N 49°25' W 123°26'714.2
2018-Nov-11 01:33N 49°23' W 123°16'0 0.1
2018-Nov-11 01:02N 49°23' W 123°16'612.9
2018-Nov-11 00:32N 49°19' W 123°24'1020.0
2018-Nov-11 00:02N 49°16' W 123°39'1019.9
2018-Nov-10 23:33N 49°13' W 123°54'3 5.9
2018-Nov-10 23:03N 49°12' W 123°57'3 5.4
2018-Nov-10 22:33N 49°13' W 123°54'918.3
2018-Nov-10 22:03N 49°16' W 123°41'918.4
2018-Nov-10 21:33N 49°19' W 123°27'816.4
2018-Nov-10 21:02N 49°23' W 123°16'0 0.7
2018-Nov-10 20:32N 49°23' W 123°16'3 6.3
2018-Nov-10 20:03N 49°21' W 123°20'1019.0
2018-Nov-10 19:32N 49°17' W 123°34'1019.6
2018-Nov-10 19:02N 49°14' W 123°48'713.2
2018-Nov-10 18:33N 49°12' W 123°57'1 1.2
2018-Nov-10 18:02N 49°12' W 123°57'918.6
2018-Nov-10 17:32N 49°16' W 123°44'1019.4
2018-Nov-10 17:02N 49°19' W 123°30'918.2
2018-Nov-10 16:33N 49°23' W 123°17'1 1.9
2018-Nov-10 16:02N 49°23' W 123°16'611.7
2018-Nov-10 15:32N 49°19' W 123°23'918.9
2018-Nov-10 15:02N 49°16' W 123°37'918.9
2018-Nov-10 14:32N 49°14' W 123°51'5 8.9
2018-Nov-10 14:02N 49°12' W 123°57'0 0.1
2018-Nov-10 13:27N 49°12' W 123°57'0 0.1
2018-Nov-10 12:57N 49°12' W 123°57'0 0.0
2018-Nov-10 11:12N 49°12' W 123°57'0 0.0
2018-Nov-10 11:00N 49°12' W 123°57'0 0.0
2018-Nov-10 10:30N 49°12' W 123°57'0 0.0
2018-Nov-10 09:57N 49°12' W 123°57'0 0.0
2018-Nov-10 09:27N 49°12' W 123°57'0 0.0
2018-Nov-10 08:57N 49°12' W 123°57'0 0.0
2018-Nov-10 08:21N 49°12' W 123°57'0 0.0
2018-Nov-10 08:02N 49°12' W 123°57'5 9.5
2018-Nov-10 07:33N 49°14' W 123°51'1019.4
2018-Nov-10 07:02N 49°17' W 123°37'1019.8
2018-Nov-10 06:32N 49°20' W 123°22'510.0
2018-Nov-10 06:03N 49°23' W 123°16'0 0.6
2018-Nov-10 05:32N 49°23' W 123°16'714.7
2018-Nov-10 05:03N 49°25' W 123°27'1 2.4
2018-Nov-10 04:33N 49°26' W 123°28'714.6
2018-Nov-10 04:02N 49°24' W 123°17'2 4.0
2018-Nov-10 03:33N 49°23' W 123°16'3 7.0
2018-Nov-10 03:03N 49°26' W 123°18'612.7
2018-Nov-10 02:32N 49°26' W 123°28'3 5.7
2018-Nov-10 02:02N 49°26' W 123°24'611.7
2018-Nov-10 01:32N 49°23' W 123°16'0 0.0
2018-Nov-10 01:02N 49°23' W 123°16'714.7
2018-Nov-10 00:32N 49°18' W 123°25'1019.8
2018-Nov-10 00:02N 49°15' W 123°40'1019.8
2018-Nov-09 23:32N 49°13' W 123°54'2 2.8
2018-Nov-09 22:42N 49°12' W 123°57'1 7.5
2018-Nov-09 22:32N 49°13' W 123°56'1019.5
2018-Nov-09 22:02N 49°16' W 123°42'1019.8
2018-Nov-09 21:32N 49°19' W 123°28'816.6
2018-Nov-09 21:02N 49°23' W 123°16'0 0.2
2018-Nov-09 20:32N 49°23' W 123°16'3 5.8
2018-Nov-09 20:02N 49°21' W 123°20'918.8
2018-Nov-09 19:32N 49°17' W 123°33'1020.5
2018-Nov-09 19:02N 49°14' W 123°48'7 6.7
2018-Nov-09 18:04N 49°12' W 123°57'0 4.1
2018-Nov-09 18:02N 49°12' W 123°57'918.3
2018-Nov-09 17:32N 49°16' W 123°45'1020.0
2018-Nov-09 17:02N 49°18' W 123°30'918.9
2018-Nov-09 16:32N 49°23' W 123°17'1 1.8
2018-Nov-09 16:02N 49°23' W 123°16'510.7
2018-Nov-09 15:32N 49°19' W 123°23'918.9
2018-Nov-09 15:02N 49°16' W 123°37'919.0
2018-Nov-09 14:32N 49°14' W 123°51'5 9.4
2018-Nov-09 14:01N 49°12' W 123°57'0 0.0
2018-Nov-09 13:32N 49°12' W 123°57'0 0.0
2018-Nov-09 13:02N 49°12' W 123°57'0 0.0
2018-Nov-09 12:28N 49°12' W 123°57'0 0.0
2018-Nov-09 12:01N 49°12' W 123°57'0 0.0
2018-Nov-09 11:31N 49°12' W 123°57'0 0.0
2018-Nov-09 10:58N 49°12' W 123°57'0 0.0
2018-Nov-09 10:28N 49°12' W 123°57'0 0.0
2018-Nov-09 09:55N 49°12' W 123°57'0 0.0
2018-Nov-09 09:31N 49°12' W 123°57'0 0.0
2018-Nov-09 09:01N 49°12' W 123°57'0 0.0
2018-Nov-09 08:28N 49°12' W 123°57'0 0.0
2018-Nov-09 08:01N 49°12' W 123°57'511.2
2018-Nov-09 07:32N 49°14' W 123°50'1019.6
2018-Nov-09 07:02N 49°18' W 123°36'1019.8
2018-Nov-09 06:32N 49°20' W 123°21'4 8.7
2018-Nov-09 06:02N 49°23' W 123°16'0 0.1
2018-Nov-09 05:32N 49°23' W 123°16'713.5
2018-Nov-09 05:02N 49°25' W 123°26'2 3.7
2018-Nov-09 04:32N 49°26' W 123°28'713.9
2018-Nov-09 04:02N 49°26' W 123°18'3 6.2
2018-Nov-09 03:33N 49°23' W 123°16'3 6.7
2018-Nov-09 03:02N 49°26' W 123°18'713.3
2018-Nov-09 02:32N 49°26' W 123°28'1 1.7
2018-Nov-09 02:02N 49°26' W 123°27'815.4
2018-Nov-09 01:32N 49°23' W 123°16'0 0.6
2018-Nov-09 01:02N 49°23' W 123°16'713.6
2018-Nov-09 00:32N 49°18' W 123°24'1019.3
2018-Nov-09 00:02N 49°16' W 123°38'1020.4
2018-Nov-08 23:32N 49°13' W 123°53'3 6.2
2018-Nov-08 23:02N 49°12' W 123°57'2 4.3
2018-Nov-08 22:32N 49°13' W 123°55'918.8
2018-Nov-08 22:02N 49°16' W 123°41'919.0
2018-Nov-08 21:32N 49°19' W 123°27'816.3
2018-Nov-08 21:02N 49°23' W 123°16'0 0.3
2018-Nov-08 20:32N 49°23' W 123°16'4 8.4
2018-Nov-08 20:02N 49°20' W 123°21'918.6
2018-Nov-08 19:33N 49°17' W 123°34'918.5
2018-Nov-08 19:02N 49°14' W 123°48'713.0
2018-Nov-08 18:32N 49°12' W 123°57'1 2.1
2018-Nov-08 18:03N 49°12' W 123°56'918.6
2018-Nov-08 17:33N 49°16' W 123°43'918.8
2018-Nov-08 17:02N 49°18' W 123°29'917.8
2018-Nov-08 16:33N 49°23' W 123°17'1 1.8
2018-Nov-08 16:02N 49°23' W 123°16'612.4
2018-Nov-08 15:32N 49°19' W 123°24'919.0
2018-Nov-08 15:02N 49°16' W 123°38'1019.2
2018-Nov-08 14:32N 49°14' W 123°52'4 8.1
2018-Nov-08 14:02N 49°12' W 123°57'0 0.1
2018-Nov-08 13:32N 49°12' W 123°57'0 0.1
2018-Nov-08 13:02N 49°12' W 123°57'0 0.0
2018-Nov-08 12:32N 49°12' W 123°57'0 0.0
2018-Nov-08 12:02N 49°12' W 123°57'0 0.0
2018-Nov-08 11:26N 49°12' W 123°57'0 0.0
2018-Nov-08 11:02N 49°12' W 123°57'0 0.0
2018-Nov-08 10:29N 49°12' W 123°57'0 0.0
2018-Nov-08 10:02N 49°12' W 123°57'0 0.0
2018-Nov-08 09:32N 49°12' W 123°57'0 0.0
2018-Nov-08 09:02N 49°12' W 123°57'0 0.0
2018-Nov-08 08:32N 49°12' W 123°57'0 0.0
2018-Nov-08 08:02N 49°12' W 123°57'5 9.7
2018-Nov-08 07:32N 49°14' W 123°51'1019.4
2018-Nov-08 07:02N 49°17' W 123°37'1019.7
2018-Nov-08 06:32N 49°20' W 123°22'5 9.9
2018-Nov-08 06:02N 49°23' W 123°16'0 0.0
2018-Nov-08 05:32N 49°23' W 123°16'713.5
2018-Nov-08 05:02N 49°25' W 123°26'2 3.7
2018-Nov-08 04:32N 49°26' W 123°28'714.0
2018-Nov-08 04:02N 49°25' W 123°18'3 5.8
2018-Nov-08 03:32N 49°23' W 123°16'4 7.3
2018-Nov-08 03:02N 49°26' W 123°19'612.1
2018-Nov-08 02:33N 49°26' W 123°28'2 3.8
2018-Nov-08 02:02N 49°25' W 123°26'713.4
2018-Nov-08 01:33N 49°23' W 123°16'0 0.2
2018-Nov-08 01:02N 49°23' W 123°16'2 7.8
2018-Nov-08 00:43N 49°21' W 123°19'319.0
2018-Nov-08 00:32N 49°19' W 123°23'120.5
2018-Nov-08 00:29N 49°19' W 123°25'920.5
2018-Nov-08 00:02N 49°16' W 123°38'1020.4
2018-Nov-07 23:32N 49°13' W 123°54'3 6.0
2018-Nov-07 23:02N 49°12' W 123°57'2 3.9
2018-Nov-07 22:32N 49°13' W 123°55'918.8
2018-Nov-07 22:02N 49°16' W 123°42'1019.1
2018-Nov-07 21:32N 49°19' W 123°27'816.7
2018-Nov-07 21:02N 49°23' W 123°16'0 0.3
2018-Nov-07 20:32N 49°23' W 123°16'4 7.9
2018-Nov-07 20:03N 49°20' W 123°21'1018.9
2018-Nov-07 19:32N 49°17' W 123°35'918.8
2018-Nov-07 19:03N 49°14' W 123°48'612.4
2018-Nov-07 18:32N 49°12' W 123°57'1 2.8
2018-Nov-07 18:02N 49°13' W 123°56'918.2
2018-Nov-07 17:32N 49°16' W 123°43'918.3
2018-Nov-07 17:02N 49°18' W 123°29'917.5
2018-Nov-07 16:32N 49°23' W 123°18'1 2.0
2018-Nov-07 16:02N 49°23' W 123°16'612.2
2018-Nov-07 15:32N 49°19' W 123°24'1019.3
2018-Nov-07 15:03N 49°16' W 123°38'1019.2
2018-Nov-07 14:32N 49°14' W 123°52'4 8.0
2018-Nov-07 14:02N 49°12' W 123°57'0 0.0
2018-Nov-07 13:33N 49°12' W 123°57'0 0.0
2018-Nov-07 13:01N 49°12' W 123°57'0 0.0
2018-Nov-07 12:31N 49°12' W 123°57'0 0.0
2018-Nov-07 12:01N 49°12' W 123°57'0 0.0
2018-Nov-07 11:31N 49°12' W 123°57'0 0.0
2018-Nov-07 11:01N 49°12' W 123°57'0 0.0
2018-Nov-07 10:31N 49°12' W 123°57'0 0.0
2018-Nov-07 10:01N 49°12' W 123°57'0 0.0
2018-Nov-07 09:22N 49°12' W 123°57'0 0.0
2018-Nov-07 08:58N 49°12' W 123°57'0 0.0
2018-Nov-07 08:28N 49°12' W 123°57'0 0.0
2018-Nov-07 08:01N 49°12' W 123°57'4 9.1
2018-Nov-07 07:32N 49°14' W 123°52'1019.4
2018-Nov-07 07:02N 49°17' W 123°37'1019.5
2018-Nov-07 06:32N 49°19' W 123°23'611.1
2018-Nov-07 06:02N 49°23' W 123°16'1 2.2
2018-Nov-07 05:32N 49°24' W 123°16'713.7
2018-Nov-07 05:02N 49°25' W 123°27'1 2.9
2018-Nov-07 04:32N 49°26' W 123°28'22 4.4
2018-Nov-06 23:30N 49°13' W 123°55'2 3.8
2018-Nov-06 23:01N 49°12' W 123°57'0 0.0
2018-Nov-06 23:00N 49°12' W 123°57'1313.1
2018-Nov-06 22:00N 49°17' W 123°39'918.1
2018-Nov-06 21:30N 49°19' W 123°25'716.2
2018-Nov-06 21:03N 49°23' W 123°16'0 7.6
2018-Nov-06 21:00N 49°23' W 123°16'0 0.1
2018-Nov-06 20:31N 49°23' W 123°16'4 8.3
2018-Nov-06 20:04N 49°20' W 123°21'118.0
2018-Nov-06 20:00N 49°20' W 123°22'918.8
2018-Nov-06 19:30N 49°17' W 123°35'818.8
2018-Nov-06 19:03N 49°14' W 123°48'118.5
2018-Nov-06 19:01N 49°14' W 123°49'611.6
2018-Nov-06 18:30N 49°12' W 123°57'1 1.7
2018-Nov-06 18:03N 49°12' W 123°57'119.6
2018-Nov-06 18:01N 49°13' W 123°55'918.3
2018-Nov-06 17:30N 49°16' W 123°42'818.6
2018-Nov-06 17:03N 49°18' W 123°30'118.4
2018-Nov-06 17:00N 49°19' W 123°29'917.7
2018-Nov-06 16:30N 49°23' W 123°17'1 1.9
2018-Nov-06 16:03N 49°23' W 123°16'0 0.0
2018-Nov-06 16:00N 49°23' W 123°16'510.7
2018-Nov-06 15:30N 49°19' W 123°23'919.9
2018-Nov-06 15:03N 49°16' W 123°35'119.5
2018-Nov-06 15:00N 49°16' W 123°37'1019.9
2018-Nov-06 14:30N 49°14' W 123°52'4 9.2
2018-Nov-06 14:03N 49°12' W 123°57'0 0.0
2018-Nov-06 13:59N 49°12' W 123°57'0 0.0
2018-Nov-06 11:22N 49°12' W 123°57'0 0.0
2018-Nov-06 10:58N 49°12' W 123°57'0 0.0
2018-Nov-06 10:22N 49°12' W 123°57'0 0.0
2018-Nov-06 09:58N 49°12' W 123°57'0 0.0
2018-Nov-06 09:07N 49°12' W 123°57'0 0.0
2018-Nov-06 09:01N 49°12' W 123°57'0 0.0
2018-Nov-06 08:58N 49°12' W 123°57'0 0.0
2018-Nov-06 08:16N 49°12' W 123°57'0 0.0
2018-Nov-06 08:01N 49°12' W 123°57'0 0.0
2018-Nov-06 07:58N 49°12' W 123°57'613.3
2018-Nov-06 07:31N 49°15' W 123°49'818.5
2018-Nov-06 07:03N 49°17' W 123°37'118.4
2018-Nov-06 07:01N 49°17' W 123°36'918.4
2018-Nov-06 06:30N 49°20' W 123°22'510.3
2018-Nov-06 06:03N 49°23' W 123°16'0 0.0
2018-Nov-06 06:00N 49°23' W 123°16'1 2.4
2018-Nov-06 05:30N 49°24' W 123°16'613.7
2018-Nov-06 05:04N 49°25' W 123°25'116.0
2018-Nov-06 05:00N 49°25' W 123°27'1 2.5
2018-Nov-06 04:30N 49°26' W 123°28'715.4
2018-Nov-06 04:03N 49°25' W 123°18'117.6
2018-Nov-06 04:01N 49°25' W 123°17'2 4.1
2018-Nov-06 03:30N 49°23' W 123°16'4 8.1
2018-Nov-06 03:03N 49°26' W 123°19'115.5
2018-Nov-06 03:01N 49°25' W 123°21'510.1
2018-Nov-06 02:30N 49°26' W 123°28'2 3.5
2018-Nov-06 02:03N 49°25' W 123°26'116.6
2018-Nov-06 02:00N 49°25' W 123°25'612.5
2018-Nov-06 01:30N 49°23' W 123°16'1 1.3
2018-Nov-06 01:00N 49°23' W 123°17'2617.5
2018-Nov-05 23:30N 49°13' W 123°54'3 3.5
2018-Nov-05 22:42N 49°12' W 123°57'2 9.2
2018-Nov-05 22:31N 49°13' W 123°55'919.6
2018-Nov-05 22:03N 49°16' W 123°43'119.9
2018-Nov-05 22:00N 49°17' W 123°42'1019.8
2018-Nov-05 21:30N 49°19' W 123°27'817.9
2018-Nov-05 21:03N 49°23' W 123°16'0 6.0
2018-Nov-05 21:00N 49°23' W 123°16'0 0.1
2018-Nov-05 20:30N 49°23' W 123°16'3 6.9
2018-Nov-05 20:03N 49°21' W 123°20'119.5
2018-Nov-05 20:01N 49°20' W 123°21'1019.1
2018-Nov-05 19:30N 49°17' W 123°35'919.3
2018-Nov-05 19:03N 49°15' W 123°48'118.8
2018-Nov-05 19:00N 49°14' W 123°49'612.1
2018-Nov-05 18:30N 49°12' W 123°57'0 0.5
2018-Nov-05 18:03N 49°12' W 123°57'110.4
2018-Nov-05 18:00N 49°12' W 123°57'918.9
2018-Nov-05 17:30N 49°16' W 123°44'919.5
2018-Nov-05 17:03N 49°18' W 123°31'119.1
2018-Nov-05 17:00N 49°18' W 123°29'918.4
2018-Nov-05 16:30N 49°23' W 123°17'1 1.5
2018-Nov-05 16:03N 49°23' W 123°16'0 0.0
2018-Nov-05 16:00N 49°23' W 123°16'511.0
2018-Nov-05 15:30N 49°19' W 123°23'919.4
2018-Nov-05 15:03N 49°16' W 123°36'119.2
2018-Nov-05 15:01N 49°16' W 123°37'1019.4
2018-Nov-05 14:30N 49°14' W 123°52'4 9.6
2018-Nov-05 14:04N 49°12' W 123°57'0 0.0
2018-Nov-05 14:01N 49°12' W 123°57'0 0.0
2018-Nov-05 13:02N 49°12' W 123°57'0 0.0
2018-Nov-05 12:59N 49°12' W 123°57'0 0.0
2018-Nov-05 12:26N 49°12' W 123°57'0 0.0
2018-Nov-05 12:02N 49°12' W 123°57'0 0.0
2018-Nov-05 11:59N 49°12' W 123°57'0 0.0
2018-Nov-05 11:20N 49°12' W 123°57'0 0.0
2018-Nov-05 10:38N 49°12' W 123°57'0 0.0
2018-Nov-05 10:17N 49°12' W 123°57'0 0.0
2018-Nov-05 09:29N 49°12' W 123°57'0 0.0
2018-Nov-05 08:26N 49°12' W 123°57'0 0.0
2018-Nov-05 08:02N 49°12' W 123°57'0 0.0
2018-Nov-05 08:00N 49°12' W 123°57'612.8
2018-Nov-05 07:30N 49°15' W 123°49'818.3
2018-Nov-05 07:03N 49°17' W 123°37'118.7
2018-Nov-05 07:00N 49°18' W 123°35'918.5
2018-Nov-05 06:31N 49°20' W 123°22'510.2
2018-Nov-05 06:03N 49°23' W 123°16'0 0.0
2018-Nov-05 06:00N 49°23' W 123°16'2 4.0
2018-Nov-05 05:31N 49°25' W 123°17'614.3
2018-Nov-05 05:03N 49°25' W 123°27'115.7
2018-Nov-05 05:01N 49°26' W 123°27'1 1.1
2018-Nov-05 04:31N 49°26' W 123°28'715.6
2018-Nov-05 04:03N 49°25' W 123°18'118.8
2018-Nov-05 04:00N 49°24' W 123°17'2 3.4
2018-Nov-05 03:30N 49°23' W 123°16'4 8.2
2018-Nov-05 03:03N 49°26' W 123°20'115.4
2018-Nov-05 03:00N 49°26' W 123°21'510.0
2018-Nov-05 02:30N 49°26' W 123°28'1 2.7
2018-Nov-05 02:03N 49°25' W 123°27'117.7
2018-Nov-05 02:00N 49°25' W 123°25'713.1
2018-Nov-05 01:30N 49°23' W 123°16'0 0.1
2018-Nov-05 01:04N 49°23' W 123°16'0 5.1
2018-Nov-05 01:01N 49°23' W 123°16'816.3
2018-Nov-05 00:30N 49°18' W 123°27'818.7
2018-Nov-05 00:03N 49°16' W 123°39'118.7
2018-Nov-05 00:00N 49°16' W 123°40'918.6
2018-Nov-04 23:30N 49°13' W 123°54'3 3.2
2018-Nov-04 22:41N 49°12' W 123°57'2 9.7
2018-Nov-04 22:30N 49°13' W 123°55'919.5
2018-Nov-04 22:03N 49°16' W 123°43'119.9
2018-Nov-04 22:01N 49°17' W 123°42'1019.9
2018-Nov-04 21:30N 49°19' W 123°27'817.6
2018-Nov-04 21:03N 49°23' W 123°16'0 4.5
2018-Nov-04 21:00N 49°23' W 123°16'0 0.1
2018-Nov-04 20:30N 49°23' W 123°16'3 5.8
2018-Nov-04 20:03N 49°21' W 123°20'119.9
2018-Nov-04 20:01N 49°20' W 123°20'1019.6
2018-Nov-04 19:31N 49°17' W 123°34'919.9
2018-Nov-04 19:03N 49°14' W 123°48'120.3
2018-Nov-04 19:00N 49°14' W 123°49'611.9
2018-Nov-04 18:31N 49°12' W 123°57'0 0.5
2018-Nov-04 18:03N 49°12' W 123°57'0 8.8
2018-Nov-04 18:00N 49°12' W 123°57'1019.2
2018-Nov-04 17:30N 49°16' W 123°43'1020.1
2018-Nov-04 17:00N 49°19' W 123°29'918.3
2018-Nov-04 16:30N 49°23' W 123°16'0 1.1
2018-Nov-04 16:03N 49°23' W 123°16'0 0.0
2018-Nov-04 16:00N 49°23' W 123°16'510.5
2018-Nov-04 15:30N 49°19' W 123°22'919.7
2018-Nov-04 15:03N 49°16' W 123°35'120.3
2018-Nov-04 15:00N 49°16' W 123°37'1020.0
2018-Nov-04 14:30N 49°14' W 123°52'4 9.3
2018-Nov-04 14:03N 49°12' W 123°57'0 0.0
2018-Nov-04 14:00N 49°12' W 123°57'0 0.1
2018-Nov-04 13:30N 49°12' W 123°57'0 0.1
2018-Nov-04 13:03N 49°12' W 123°57'0 0.0
2018-Nov-04 13:00N 49°12' W 123°57'0 0.0
2018-Nov-04 12:30N 49°12' W 123°57'0 0.0
2018-Nov-04 12:03N 49°12' W 123°57'0 0.0
2018-Nov-04 12:00N 49°12' W 123°57'0 0.0
2018-Nov-04 11:30N 49°12' W 123°57'0 0.0
2018-Nov-04 11:03N 49°12' W 123°57'0 0.0
2018-Nov-04 11:00N 49°12' W 123°57'0 0.0
2018-Nov-04 10:30N 49°12' W 123°57'0 0.0
2018-Nov-04 10:03N 49°12' W 123°57'0 0.0
2018-Nov-04 10:00N 49°12' W 123°57'0 0.0
2018-Nov-04 09:30N 49°12' W 123°57'0 0.0
2018-Nov-04 09:01N 49°12' W 123°57'0 0.0
2018-Nov-04 09:00N 49°12' W 123°57'0 0.0
2018-Nov-04 08:30N 49°12' W 123°57'0 0.0
2018-Nov-04 08:03N 49°12' W 123°57'0 0.0
2018-Nov-04 08:00N 49°12' W 123°57'0 0.0
2018-Nov-04 07:30N 49°12' W 123°57'0 0.0
2018-Nov-04 07:03N 49°12' W 123°57'0 0.0
2018-Nov-04 07:00N 49°12' W 123°57'0 0.0
2018-Nov-04 06:30N 49°12' W 123°57'0 0.0
2018-Nov-04 06:03N 49°12' W 123°57'0 0.0
2018-Nov-04 06:00N 49°12' W 123°57'0 0.0
2018-Nov-04 05:30N 49°12' W 123°57'0 0.0
2018-Nov-04 05:03N 49°12' W 123°57'0 0.0
2018-Nov-04 05:00N 49°12' W 123°57'0 0.0
2018-Nov-04 04:30N 49°12' W 123°57'0 0.0
2018-Nov-04 04:03N 49°12' W 123°57'0 0.0
2018-Nov-04 04:00N 49°12' W 123°57'0 0.0
2018-Nov-04 03:30N 49°12' W 123°57'4 9.8
2018-Nov-04 03:03N 49°14' W 123°52'118.6
2018-Nov-04 03:01N 49°15' W 123°51'918.2
2018-Nov-04 02:31N 49°18' W 123°38'919.6
2018-Nov-04 02:03N 49°19' W 123°24'119.8
2018-Nov-04 02:00N 49°19' W 123°23'5 3.6
2018-Nov-04 00:32N 49°23' W 123°16'0 0.0
2018-Nov-04 00:30N 49°23' W 123°16'0 0.1
2018-Nov-04 00:03N 49°23' W 123°16'0 7.8
2018-Nov-04 00:01N 49°23' W 123°16'917.6
2018-Nov-03 23:30N 49°18' W 123°27'919.5
2018-Nov-03 23:03N 49°15' W 123°40'119.2
2018-Nov-03 23:00N 49°15' W 123°42'1019.5
2018-Nov-03 22:30N 49°13' W 123°56'2010.1
2018-Nov-03 20:30N 49°19' W 123°27'817.2
2018-Nov-03 20:03N 49°23' W 123°16'0 2.5
2018-Nov-03 20:00N 49°23' W 123°16'0 0.1
2018-Nov-03 19:30N 49°23' W 123°16'4 9.1
2018-Nov-03 19:03N 49°20' W 123°21'118.9
2018-Nov-03 19:00N 49°19' W 123°22'1019.8
2018-Nov-03 18:30N 49°16' W 123°37'919.8
2018-Nov-03 18:03N 49°15' W 123°50'119.6
2018-Nov-03 18:00N 49°14' W 123°52'5 9.3
2018-Nov-03 17:30N 49°12' W 123°57'0 0.5
2018-Nov-03 17:03N 49°12' W 123°57'0 7.2
2018-Nov-03 17:00N 49°12' W 123°57'919.0
2018-Nov-03 16:30N 49°16' W 123°44'919.8
2018-Nov-03 16:03N 49°18' W 123°31'119.8
2018-Nov-03 16:00N 49°19' W 123°29'918.7
2018-Nov-03 15:30N 49°23' W 123°17'1 1.3
2018-Nov-03 15:03N 49°23' W 123°16'0 0.0
2018-Nov-03 15:00N 49°23' W 123°16'611.0
2018-Nov-03 14:30N 49°19' W 123°23'919.4
2018-Nov-03 14:03N 49°16' W 123°36'119.5
2018-Nov-03 14:01N 49°16' W 123°37'1019.4
2018-Nov-03 13:30N 49°14' W 123°51'4 5.8
2018-Nov-03 12:45N 49°12' W 123°57'0 0.0
2018-Nov-03 12:07N 49°12' W 123°57'0 0.0
2018-Nov-03 11:55N 49°12' W 123°57'0 0.0
2018-Nov-03 11:19N 49°12' W 123°57'0 0.0
2018-Nov-03 10:59N 49°12' W 123°57'0 0.0
2018-Nov-03 10:04N 49°12' W 123°57'0 0.0
2018-Nov-03 10:01N 49°12' W 123°57'0 0.0
2018-Nov-03 09:56N 49°12' W 123°57'0 0.0
2018-Nov-03 09:10N 49°12' W 123°57'0 0.0
2018-Nov-03 08:53N 49°12' W 123°57'0 0.0
2018-Nov-03 08:29N 49°12' W 123°57'0 0.0
2018-Nov-03 07:38N 49°12' W 123°57'0 0.0
2018-Nov-03 06:57N 49°12' W 123°57'715.8
2018-Nov-03 06:30N 49°16' W 123°48'818.4
2018-Nov-03 06:03N 49°18' W 123°36'118.7
2018-Nov-03 06:00N 49°18' W 123°35'918.5
2018-Nov-03 05:30N 49°20' W 123°21'4 8.6
2018-Nov-03 05:03N 49°23' W 123°16'0 0.0
2018-Nov-03 05:00N 49°23' W 123°16'1 1.7
2018-Nov-03 04:30N 49°23' W 123°16'613.7
2018-Nov-03 04:04N 49°25' W 123°25'115.5
2018-Nov-03 04:00N 49°25' W 123°26'1 2.7
2018-Nov-03 03:31N 49°26' W 123°28'614.1
2018-Nov-03 03:03N 49°26' W 123°19'113.9
2018-Nov-03 03:00N 49°25' W 123°18'3 5.8
2018-Nov-03 02:30N 49°23' W 123°16'4 8.4
2018-Nov-03 02:03N 49°26' W 123°20'116.0
2018-Nov-03 02:00N 49°26' W 123°21'5 9.9
2018-Nov-03 01:30N 49°26' W 123°28'2 4.7
2018-Nov-03 01:03N 49°25' W 123°25'117.7
2018-Nov-03 01:00N 49°26' W 123°24'611.6
2018-Nov-03 00:31N 49°23' W 123°16'0 0.0
2018-Nov-03 00:04N 49°23' W 123°16'0 4.1
2018-Nov-03 00:00N 49°23' W 123°16'816.4
2018-Nov-02 23:30N 49°18' W 123°26'818.5
2018-Nov-02 23:03N 49°16' W 123°39'118.1
2018-Nov-02 23:01N 49°16' W 123°40'918.4
2018-Nov-02 22:30N 49°13' W 123°54'3 6.4
2018-Nov-02 22:03N 49°12' W 123°57'0 0.0
2018-Nov-02 22:00N 49°12' W 123°57'3 5.5
2018-Nov-02 21:30N 49°13' W 123°54'919.8
2018-Nov-02 21:03N 49°16' W 123°41'120.2
2018-Nov-02 21:00N 49°17' W 123°40'1020.0
2018-Nov-02 20:30N 49°19' W 123°25'714.8
2018-Nov-02 20:03N 49°23' W 123°16'0 1.0
2018-Nov-02 20:00N 49°23' W 123°16'0 0.0
2018-Nov-02 19:30N 49°23' W 123°16'3 7.5
2018-Nov-02 19:04N 49°20' W 123°20'120.0
2018-Nov-02 19:01N 49°20' W 123°21'1019.0
2018-Nov-02 18:31N 49°16' W 123°35'919.8
2018-Nov-02 18:03N 49°14' W 123°48'119.7
2018-Nov-02 18:00N 49°14' W 123°50'610.2
2018-Nov-02 17:27N 49°12' W 123°57'0 0.4
2018-Nov-02 17:03N 49°12' W 123°57'010.3
2018-Nov-02 17:00N 49°12' W 123°57'1019.1
2018-Nov-02 16:30N 49°16' W 123°43'920.0
2018-Nov-02 16:03N 49°18' W 123°30'120.1
2018-Nov-02 16:00N 49°18' W 123°29'918.3
2018-Nov-02 15:30N 49°23' W 123°17'1 1.2
2018-Nov-02 15:04N 49°23' W 123°16'0 0.0
2018-Nov-02 15:01N 49°23' W 123°16'611.1
2018-Nov-02 14:30N 49°19' W 123°23'1019.3
2018-Nov-02 14:00N 49°16' W 123°37'1019.4
2018-Nov-02 13:30N 49°14' W 123°51'4 9.6
2018-Nov-02 13:03N 49°12' W 123°57'0 0.0
2018-Nov-02 13:00N 49°12' W 123°57'0 0.1
2018-Nov-02 12:30N 49°12' W 123°57'0 0.1
2018-Nov-02 11:58N 49°12' W 123°57'0 0.0
2018-Nov-02 11:25N 49°12' W 123°57'0 0.0
2018-Nov-02 10:55N 49°12' W 123°57'0 0.0
2018-Nov-02 10:25N 49°12' W 123°57'0 0.0
2018-Nov-02 09:46N 49°12' W 123°57'0 0.0
2018-Nov-02 09:28N 49°12' W 123°57'0 0.0
2018-Nov-02 09:01N 49°12' W 123°57'0 0.0
2018-Nov-02 08:58N 49°12' W 123°57'0 0.0
2018-Nov-02 08:28N 49°12' W 123°57'0 0.0
2018-Nov-02 07:55N 49°12' W 123°57'0 0.0
2018-Nov-02 07:10N 49°12' W 123°57'0 0.0
2018-Nov-02 06:59N 49°12' W 123°57'612.8
2018-Nov-02 06:30N 49°15' W 123°49'818.5
2018-Nov-02 06:03N 49°18' W 123°37'118.8
2018-Nov-02 06:00N 49°18' W 123°36'918.5
2018-Nov-02 05:30N 49°20' W 123°22'510.7
2018-Nov-02 05:03N 49°23' W 123°16'0 0.0
2018-Nov-02 05:00N 49°23' W 123°16'1 2.5
2018-Nov-02 04:30N 49°24' W 123°16'614.2
2018-Nov-02 04:03N 49°25' W 123°26'118.9
2018-Nov-02 04:00N 49°26' W 123°27'1 1.4
2018-Nov-02 03:30N 49°26' W 123°28'614.2
2018-Nov-02 03:04N 49°26' W 123°18'115.5
2018-Nov-02 03:00N 49°25' W 123°17'3 5.3
2018-Nov-02 02:30N 49°23' W 123°16'4 8.2
2018-Nov-02 02:04N 49°26' W 123°19'116.0
2018-Nov-02 02:01N 49°26' W 123°20'510.4
2018-Nov-02 01:30N 49°26' W 123°28'2 3.9
2018-Nov-02 01:03N 49°25' W 123°26'116.3
2018-Nov-02 01:00N 49°25' W 123°25'116.8
2018-Nov-02 00:56N 49°25' W 123°23'413.3
2018-Nov-02 00:36N 49°23' W 123°17'1 9.3
2018-Nov-02 00:30N 49°23' W 123°16'0 0.3
2018-Nov-02 00:03N 49°23' W 123°16'110.8
2018-Nov-02 00:00N 49°23' W 123°17'917.1
2018-Nov-01 23:30N 49°18' W 123°27'818.3
2018-Nov-01 23:03N 49°16' W 123°39'118.4
2018-Nov-01 23:00N 49°16' W 123°41'918.2
2018-Nov-01 22:30N 49°13' W 123°54'3 4.9
2018-Nov-01 21:58N 49°12' W 123°57'4 7.9
2018-Nov-01 21:30N 49°14' W 123°53'920.0
2018-Nov-01 21:03N 49°17' W 123°40'119.9
2018-Nov-01 21:00N 49°17' W 123°38'1019.7
2018-Nov-01 20:30N 49°19' W 123°24'613.1
2018-Nov-01 20:03N 49°23' W 123°16'0 0.0
2018-Nov-01 20:00N 49°23' W 123°16'0 0.0
2018-Nov-01 19:30N 49°23' W 123°16'4 8.3
2018-Nov-01 19:03N 49°20' W 123°21'119.4
2018-Nov-01 19:00N 49°19' W 123°22'1019.4
2018-Nov-01 18:30N 49°17' W 123°36'919.7
2018-Nov-01 18:03N 49°15' W 123°49'119.0
2018-Nov-01 18:00N 49°15' W 123°51'511.0
2018-Nov-01 17:30N 49°12' W 123°57'0 0.9
2018-Nov-01 17:03N 49°12' W 123°57'113.8
2018-Nov-01 17:00N 49°12' W 123°56'1019.5
2018-Nov-01 16:30N 49°17' W 123°43'919.8
2018-Nov-01 16:03N 49°19' W 123°30'119.8
2018-Nov-01 16:00N 49°19' W 123°28'917.4
2018-Nov-01 15:30N 49°23' W 123°16'0 0.7
2018-Nov-01 15:03N 49°23' W 123°16'0 0.0
2018-Nov-01 15:00N 49°23' W 123°16'611.8
2018-Nov-01 14:30N 49°19' W 123°24'1019.4
2018-Nov-01 14:01N 49°16' W 123°38'1019.4
2018-Nov-01 13:30N 49°14' W 123°52'4 8.7
2018-Nov-01 13:03N 49°12' W 123°57'0 0.0
2018-Nov-01 13:00N 49°12' W 123°57'0 0.0
2018-Nov-01 12:20N 49°12' W 123°57'0 0.0
2018-Nov-01 12:02N 49°12' W 123°57'0 0.0
2018-Nov-01 11:56N 49°12' W 123°57'0 0.0
2018-Nov-01 11:29N 49°12' W 123°57'0 0.0
2018-Nov-01 10:56N 49°12' W 123°57'0 0.0
2018-Nov-01 10:26N 49°12' W 123°57'0 0.0
2018-Nov-01 09:56N 49°12' W 123°57'0 0.0
2018-Nov-01 09:29N 49°12' W 123°57'0 0.0
2018-Nov-01 09:02N 49°12' W 123°57'0 0.0
2018-Nov-01 08:50N 49°12' W 123°57'0 0.0
2018-Nov-01 08:26N 49°12' W 123°57'0 0.0
2018-Nov-01 08:02N 49°12' W 123°57'0 0.0
2018-Nov-01 07:56N 49°12' W 123°57'0 0.0
2018-Nov-01 07:29N 49°12' W 123°57'0 0.0
2018-Nov-01 06:58N 49°12' W 123°57'614.3
2018-Nov-01 06:30N 49°15' W 123°49'918.9
2018-Nov-01 06:03N 49°17' W 123°36'118.7
2018-Nov-01 06:00N 49°18' W 123°35'918.8
2018-Nov-01 05:30N 49°20' W 123°21'4 8.6
2018-Nov-01 05:04N 49°23' W 123°16'0 0.0
2018-Nov-01 05:01N 49°23' W 123°16'2 4.9
2018-Nov-01 04:30N 49°25' W 123°17'613.8
2018-Nov-01 04:03N 49°25' W 123°27'114.8
2018-Nov-01 04:00N 49°26' W 123°27'0 0.8
2018-Nov-01 03:30N 49°26' W 123°28'715.5
2018-Nov-01 03:03N 49°25' W 123°17'118.4
2018-Nov-01 03:01N 49°24' W 123°17'  

Dump ship's entire track history